createdAt,value
2019-05-06T00:00:01.476Z,18.40
2019-05-06T00:02:34.041Z,14.17
2019-05-06T00:05:14.396Z,14.93
2019-05-06T00:08:06.166Z,15.87
2019-05-06T00:10:39.890Z,16.47
2019-05-06T00:13:54.546Z,15.08
2019-05-06T00:28:25.181Z,13.40
2019-05-06T00:31:49.840Z,15.40
2019-05-06T00:34:43.646Z,13.87
2019-05-06T00:37:44.181Z,14.57
2019-05-06T00:40:20.589Z,12.27
2019-05-06T00:42:56.966Z,13.80
2019-05-06T00:45:26.565Z,15.63
2019-05-06T00:47:59.446Z,17.03
2019-05-06T00:50:29.078Z,19.33
2019-05-06T00:52:59.861Z,12.10
2019-05-06T00:55:31.230Z,10.50
2019-05-06T00:58:00.939Z,17.10
2019-05-06T01:00:35.784Z,15.57
2019-05-06T01:03:05.640Z,14.43
2019-05-06T01:05:38.821Z,12.27
2019-05-06T01:08:26.947Z,16.77
2019-05-06T01:10:59.231Z,12.67
2019-05-06T01:13:36.258Z,15.63
2019-05-06T01:16:05.090Z,15.05
2019-05-06T01:18:34.132Z,17.83
2019-05-06T01:21:14.321Z,14.53
2019-05-06T01:23:44.109Z,14.67
2019-05-06T01:26:15.027Z,16.02
2019-05-06T01:28:45.270Z,15.30
2019-05-06T01:31:14.346Z,16.20
2019-05-06T01:33:45.082Z,17.40
2019-05-06T01:36:14.251Z,17.63
2019-05-06T01:39:13.937Z,15.78
2019-05-06T01:41:53.535Z,21.27
2019-05-06T01:44:24.285Z,22.20
2019-05-06T01:46:54.215Z,16.27
2019-05-06T01:49:26.357Z,21.52
2019-05-06T01:51:56.578Z,21.57
2019-05-06T01:54:25.455Z,21.10
2019-05-06T01:56:54.744Z,23.20
2019-05-06T01:59:26.519Z,18.00
2019-05-06T02:02:00.820Z,21.40
2019-05-06T02:04:28.457Z,20.50
2019-05-06T02:06:57.219Z,23.37
2019-05-06T02:09:27.378Z,21.83
2019-05-06T02:11:59.205Z,22.37
2019-05-06T02:14:29.194Z,20.33
2019-05-06T02:16:58.050Z,22.13
2019-05-06T02:19:29.937Z,21.07
2019-05-06T02:22:08.397Z,20.82
2019-05-06T02:24:43.973Z,20.20
2019-05-06T02:27:13.950Z,19.20
2019-05-06T02:29:51.863Z,18.63
2019-05-06T02:32:36.752Z,22.27
2019-05-06T02:35:37.049Z,20.60
2019-05-06T02:38:08.228Z,20.88
2019-05-06T02:40:38.142Z,22.73
2019-05-06T02:43:09.376Z,22.30
2019-05-06T02:45:38.250Z,25.07
2019-05-06T02:48:27.039Z,21.55
2019-05-06T02:51:17.250Z,22.43
2019-05-06T02:53:46.211Z,23.10
2019-05-06T02:56:14.998Z,22.65
2019-05-06T02:58:43.904Z,27.43
2019-05-06T03:01:14.952Z,21.33
2019-05-06T03:03:43.871Z,22.07
2019-05-06T03:06:13.242Z,24.03
2019-05-06T03:08:43.368Z,28.00
2019-05-06T03:11:13.608Z,24.37
2019-05-06T03:13:43.768Z,23.33
2019-05-06T03:16:14.510Z,24.63
2019-05-06T03:18:44.898Z,26.97
2019-05-06T03:21:44.894Z,27.30
2019-05-06T03:24:36.578Z,26.67
2019-05-06T03:27:05.389Z,25.92
2019-05-06T03:29:34.288Z,24.13
2019-05-06T03:32:07.109Z,20.73
2019-05-06T03:34:57.961Z,21.10
2019-05-06T03:37:07.423Z,23.55
2019-05-06T03:39:36.911Z,22.07
2019-05-06T03:42:07.065Z,22.67
2019-05-06T03:44:37.525Z,23.37
2019-05-06T03:47:13.877Z,20.03
2019-05-06T03:49:49.730Z,23.47
2019-05-06T03:52:16.638Z,27.80
2019-05-06T03:54:48.719Z,23.97
2019-05-06T03:57:23.195Z,24.77
2019-05-06T03:59:53.501Z,19.90
2019-05-06T04:02:24.134Z,22.60
2019-05-06T04:04:56.527Z,21.63
2019-05-06T04:07:26.514Z,23.50
2019-05-06T04:09:55.531Z,23.77
2019-05-06T04:12:28.502Z,23.53
2019-05-06T04:14:57.422Z,20.50
2019-05-06T04:17:35.051Z,20.70
2019-05-06T04:20:23.751Z,22.90
2019-05-06T04:23:06.008Z,23.77
2019-05-06T04:25:52.723Z,19.33
2019-05-06T04:28:23.940Z,23.63
2019-05-06T04:30:54.877Z,23.43
2019-05-06T04:33:24.223Z,26.47
2019-05-06T04:35:54.066Z,19.83
2019-05-06T04:38:26.153Z,19.67
2019-05-06T04:40:55.083Z,21.27
2019-05-06T04:43:26.792Z,19.07
2019-05-06T04:45:54.472Z,19.17
2019-05-06T04:48:24.022Z,17.63
2019-05-06T04:50:54.012Z,18.17
2019-05-06T04:53:26.870Z,16.93
2019-05-06T04:55:54.226Z,15.48
2019-05-06T04:58:25.817Z,14.97
2019-05-06T05:00:54.960Z,18.62
2019-05-06T05:03:23.825Z,17.33
2019-05-06T05:05:55.565Z,16.70
2019-05-06T05:08:36.736Z,16.00
2019-05-06T05:11:17.812Z,16.05
2019-05-06T05:14:02.853Z,14.67
2019-05-06T05:16:37.548Z,15.37
2019-05-06T05:19:12.026Z,14.25
2019-05-06T05:21:42.987Z,18.73
2019-05-06T05:24:12.534Z,15.32
2019-05-06T05:26:45.093Z,15.50
2019-05-06T05:29:14.993Z,12.65
2019-05-06T05:31:46.158Z,15.80
2019-05-06T05:34:15.106Z,13.50
2019-05-06T05:36:43.935Z,16.63
2019-05-06T05:39:12.793Z,12.37
2019-05-06T05:41:42.946Z,12.43
2019-05-06T05:44:18.783Z,14.13
2019-05-06T05:46:47.748Z,14.10
2019-05-06T05:49:45.534Z,11.23
2019-05-06T05:52:14.987Z,14.57
2019-05-06T05:54:44.597Z,11.50
2019-05-06T05:57:13.358Z,13.40
2019-05-06T05:59:42.294Z,12.40
2019-05-06T06:02:12.802Z,11.07
2019-05-06T06:04:53.756Z,14.73
2019-05-06T06:07:12.391Z,14.20
2019-05-06T06:09:49.824Z,11.63
2019-05-06T06:12:19.461Z,11.17
2019-05-06T06:15:23.102Z,11.07
2019-05-06T06:18:12.578Z,11.67
2019-05-06T06:21:17.064Z,9.33
2019-05-06T06:23:37.898Z,10.57
2019-05-06T06:26:08.690Z,12.55
2019-05-06T06:28:42.534Z,11.63
2019-05-06T06:31:30.846Z,10.13
2019-05-06T06:34:12.866Z,11.17
2019-05-06T06:37:02.475Z,9.13
2019-05-06T06:39:36.340Z,8.97
2019-05-06T06:42:05.526Z,11.33
2019-05-06T06:44:35.570Z,11.53
2019-05-06T06:47:04.520Z,10.93
2019-05-06T06:49:33.369Z,10.67
2019-05-06T06:52:02.721Z,8.80
2019-05-06T06:54:32.437Z,8.70
2019-05-06T06:57:12.715Z,10.63
2019-05-06T06:59:53.338Z,8.03
2019-05-06T07:02:29.584Z,12.30
2019-05-06T07:05:21.590Z,12.87
2019-05-06T07:07:43.475Z,11.08
2019-05-06T07:10:34.713Z,10.50
2019-05-06T07:13:03.588Z,11.33
2019-05-06T07:15:33.658Z,11.13
2019-05-06T07:18:02.926Z,13.07
2019-05-06T07:20:35.519Z,11.43
2019-05-06T07:23:26.658Z,13.20
2019-05-06T07:25:57.713Z,12.53
2019-05-06T07:28:26.702Z,11.27
2019-05-06T07:30:56.074Z,12.10
2019-05-06T07:33:27.801Z,8.97
2019-05-06T07:35:59.034Z,10.57
2019-05-06T07:38:32.565Z,11.43
2019-05-06T07:41:18.760Z,11.13
2019-05-06T07:44:13.033Z,10.67
2019-05-06T07:46:53.437Z,11.83
2019-05-06T07:49:23.771Z,14.38
2019-05-06T07:51:53.040Z,9.27
2019-05-06T07:54:22.435Z,8.05
2019-05-06T07:56:52.692Z,7.93
2019-05-06T07:59:22.758Z,8.98
2019-05-06T08:01:54.228Z,8.53
2019-05-06T08:04:23.173Z,9.43
2019-05-06T08:06:52.354Z,6.53
2019-05-06T08:09:22.763Z,8.23
2019-05-06T08:11:53.096Z,6.87
2019-05-06T08:14:26.580Z,7.15
2019-05-06T08:17:02.211Z,6.27
2019-05-06T08:19:33.485Z,8.27
2019-05-06T08:22:04.091Z,6.80
2019-05-06T08:24:36.901Z,5.23
2019-05-06T08:27:07.928Z,5.53
2019-05-06T08:29:37.538Z,5.30
2019-05-06T08:32:06.401Z,5.60
2019-05-06T08:34:35.194Z,4.37
2019-05-06T08:37:09.520Z,4.77
2019-05-06T08:39:38.349Z,5.30
2019-05-06T08:42:10.084Z,4.20
2019-05-06T08:44:42.558Z,4.10
2019-05-06T08:47:13.591Z,5.53
2019-05-06T08:50:02.425Z,5.43
2019-05-06T08:52:53.961Z,3.77
2019-05-06T08:55:29.262Z,4.63
2019-05-06T08:57:59.291Z,5.07
2019-05-06T09:00:32.346Z,3.97
2019-05-06T09:03:04.434Z,5.43
2019-05-06T09:05:33.151Z,5.77
2019-05-06T09:08:03.608Z,5.17
2019-05-06T09:10:32.854Z,5.67
2019-05-06T09:13:02.018Z,7.77
2019-05-06T09:15:32.677Z,4.80
2019-05-06T09:18:03.003Z,3.23
2019-05-06T09:20:32.616Z,5.10
2019-05-06T09:23:04.546Z,4.47
2019-05-06T09:25:32.385Z,3.65
2019-05-06T09:28:23.860Z,4.33
2019-05-06T09:30:58.490Z,3.50
2019-05-06T09:33:37.056Z,5.33
2019-05-06T09:36:05.932Z,2.37
2019-05-06T09:38:34.699Z,3.42
2019-05-06T09:41:04.993Z,3.37
2019-05-06T09:43:34.089Z,3.53
2019-05-06T09:46:06.049Z,3.77
2019-05-06T09:48:54.210Z,3.30
2019-05-06T09:51:22.991Z,4.20
2019-05-06T09:54:29.213Z,4.40
2019-05-06T09:57:12.901Z,4.60
2019-05-06T09:59:42.434Z,3.87
2019-05-06T10:02:12.365Z,3.93
2019-05-06T10:04:42.867Z,2.90
2019-05-06T10:07:12.365Z,3.37
2019-05-06T10:09:43.487Z,4.63
2019-05-06T10:12:12.709Z,4.57
2019-05-06T10:14:43.296Z,2.30
2019-05-06T10:17:13.240Z,3.55
2019-05-06T10:19:42.916Z,4.17
2019-05-06T10:22:12.829Z,5.30
2019-05-06T10:24:46.536Z,3.73
2019-05-06T10:27:15.476Z,3.53
2019-05-06T10:29:57.644Z,3.63
2019-05-06T10:32:37.975Z,4.37
2019-05-06T10:35:13.110Z,4.17
2019-05-06T10:38:05.085Z,4.40
2019-05-06T10:40:55.158Z,4.55
2019-05-06T10:43:28.574Z,3.73
2019-05-06T10:45:57.359Z,3.97
2019-05-06T10:48:26.206Z,4.05
2019-05-06T10:50:59.008Z,4.57
2019-05-06T10:53:33.361Z,4.23
2019-05-06T10:56:23.045Z,5.23
2019-05-06T10:58:52.766Z,4.27
2019-05-06T11:01:27.637Z,4.87
2019-05-06T11:03:56.703Z,3.07
2019-05-06T11:06:25.609Z,5.23
2019-05-06T11:08:54.380Z,3.30
2019-05-06T11:11:32.708Z,4.30
2019-05-06T11:13:53.873Z,3.42
2019-05-06T11:16:23.742Z,4.17
2019-05-06T11:18:53.527Z,3.95
2019-05-06T11:21:22.803Z,3.43
2019-05-06T11:23:52.623Z,3.73
2019-05-06T11:26:24.800Z,2.77
2019-05-06T11:28:58.386Z,3.97
2019-05-06T11:31:43.260Z,4.93
2019-05-06T11:34:22.676Z,3.87
2019-05-06T11:36:53.986Z,4.77
2019-05-06T11:39:24.102Z,5.33
2019-05-06T11:42:08.074Z,3.60
2019-05-06T11:44:24.771Z,4.53
2019-05-06T11:46:53.714Z,58.77
2019-05-06T11:49:23.443Z,5.42
2019-05-06T11:51:52.634Z,3.53
2019-05-06T11:54:24.357Z,4.08
2019-05-06T11:56:58.103Z,2.97
2019-05-06T11:59:25.757Z,2.33
2019-05-06T12:01:58.710Z,2.87
2019-05-06T12:04:27.614Z,4.90
2019-05-06T12:07:10.498Z,4.47
2019-05-06T12:09:29.394Z,3.47
2019-05-06T12:11:58.295Z,3.33
2019-05-06T12:14:27.079Z,2.67
2019-05-06T12:16:56.067Z,2.70
2019-05-06T12:19:24.914Z,3.37
2019-05-06T12:21:53.840Z,4.80
2019-05-06T12:24:23.000Z,3.27
2019-05-06T12:26:52.276Z,3.58
2019-05-06T12:29:21.226Z,3.53
2019-05-06T12:31:57.761Z,2.22
2019-05-06T12:34:27.713Z,3.43
2019-05-06T12:36:58.853Z,2.87
2019-05-06T12:39:32.755Z,2.10
2019-05-06T12:42:38.007Z,2.55
2019-05-06T12:45:33.641Z,2.62
2019-05-06T12:48:06.778Z,3.17
2019-05-06T12:50:36.068Z,5.10
2019-05-06T12:53:07.128Z,3.20
2019-05-06T12:55:36.079Z,5.70
2019-05-06T12:58:04.897Z,4.97
2019-05-06T13:00:34.923Z,3.10
2019-05-06T13:03:04.321Z,5.17
2019-05-06T13:05:33.345Z,2.80
2019-05-06T13:08:05.577Z,1.80
2019-05-06T13:10:34.267Z,2.23
2019-05-06T13:13:04.410Z,3.50
2019-05-06T13:15:35.310Z,2.87
2019-05-06T13:18:07.131Z,3.80
2019-05-06T13:20:37.505Z,2.60
2019-05-06T13:23:17.258Z,2.70
2019-05-06T13:25:44.857Z,4.72
2019-05-06T13:28:14.191Z,3.33
2019-05-06T13:30:46.123Z,3.47
2019-05-06T13:33:34.317Z,2.77
2019-05-06T13:36:03.463Z,4.17
2019-05-06T13:38:32.285Z,2.73
2019-05-06T13:41:03.084Z,4.50
2019-05-06T13:43:39.815Z,5.03
2019-05-06T13:46:18.547Z,2.13
2019-05-06T13:49:09.337Z,4.05
2019-05-06T13:51:43.084Z,3.20
2019-05-06T13:54:15.480Z,6.13
2019-05-06T13:56:42.598Z,3.23
2019-05-06T13:59:13.000Z,7.13
2019-05-06T14:02:16.605Z,3.67
2019-05-06T14:04:48.283Z,5.20
2019-05-06T14:07:17.111Z,3.47
2019-05-06T14:09:45.956Z,3.07
2019-05-06T14:12:18.791Z,3.20
2019-05-06T14:14:47.635Z,5.00
2019-05-06T14:17:19.139Z,7.22
2019-05-06T14:19:50.224Z,2.93
2019-05-06T14:22:18.990Z,4.45
2019-05-06T14:25:05.898Z,2.97
2019-05-06T14:27:37.521Z,4.03
2019-05-06T14:30:13.394Z,6.93
2019-05-06T14:32:43.182Z,3.40
2019-05-06T14:35:14.817Z,4.83
2019-05-06T14:37:43.601Z,3.40
2019-05-06T14:40:15.801Z,4.33
2019-05-06T14:42:44.560Z,5.60
2019-05-06T14:45:14.783Z,3.60
2019-05-06T14:47:43.794Z,5.67
2019-05-06T14:50:14.419Z,5.13
2019-05-06T14:52:43.660Z,6.03
2019-05-06T14:55:26.976Z,4.53
2019-05-06T14:57:55.744Z,4.67
2019-05-06T15:00:24.693Z,4.63
2019-05-06T15:02:56.983Z,6.08
2019-05-06T15:05:25.765Z,4.13
2019-05-06T15:07:54.537Z,4.95
2019-05-06T15:10:26.345Z,4.93
2019-05-06T15:12:53.860Z,3.92
2019-05-06T15:15:22.988Z,5.07
2019-05-06T15:17:53.251Z,4.63
2019-05-06T15:20:24.242Z,3.13
2019-05-06T15:22:53.366Z,3.92
2019-05-06T15:25:22.327Z,3.10
2019-05-06T15:27:53.242Z,4.67
2019-05-06T15:30:29.138Z,5.73
2019-05-06T15:32:58.086Z,4.53
2019-05-06T15:35:44.698Z,3.63
2019-05-06T15:38:18.633Z,5.28
2019-05-06T15:40:47.661Z,4.00
2019-05-06T15:43:16.474Z,5.17
2019-05-06T15:45:45.262Z,3.87
2019-05-06T15:48:14.104Z,6.33
2019-05-06T15:50:45.604Z,5.60
2019-05-06T15:53:14.402Z,3.97
2019-05-06T15:55:43.695Z,5.20
2019-05-06T15:58:12.698Z,5.77
2019-05-06T16:00:42.824Z,5.80
2019-05-06T16:03:12.938Z,6.87
2019-05-06T16:05:43.689Z,3.65
2019-05-06T16:08:12.855Z,4.73
2019-05-06T16:10:51.872Z,6.47
2019-05-06T16:13:18.140Z,5.63
2019-05-06T16:15:47.062Z,6.08
2019-05-06T16:18:17.413Z,4.43
2019-05-06T16:20:46.316Z,5.95
2019-05-06T16:23:28.744Z,6.17
2019-05-06T16:25:59.762Z,7.35
2019-05-06T16:28:30.817Z,6.33
2019-05-06T16:30:59.712Z,6.25
2019-05-06T16:33:33.001Z,5.33
2019-05-06T16:36:02.188Z,5.03
2019-05-06T16:38:32.351Z,5.77
2019-05-06T16:41:12.289Z,6.25
2019-05-06T16:43:35.127Z,5.30
2019-05-06T16:46:05.962Z,5.72
2019-05-06T16:48:37.251Z,7.33
2019-05-06T16:51:06.189Z,6.07
2019-05-06T16:53:35.247Z,8.10
2019-05-06T16:56:15.680Z,6.30
2019-05-06T16:58:53.132Z,7.80
2019-05-06T17:01:19.313Z,9.90
2019-05-06T17:04:03.849Z,8.27
2019-05-06T17:06:37.550Z,8.40
2019-05-06T17:09:18.363Z,6.73
2019-05-06T17:11:43.130Z,6.23
2019-05-06T17:14:14.079Z,8.33
2019-05-06T17:16:46.312Z,7.10
2019-05-06T17:19:17.246Z,7.40
2019-05-06T17:21:48.387Z,9.47
2019-05-06T17:24:18.434Z,10.93
2019-05-06T17:26:47.742Z,8.60
2019-05-06T17:29:34.513Z,7.90
2019-05-06T17:32:22.185Z,7.07
2019-05-06T17:34:57.327Z,8.40
2019-05-06T17:37:42.882Z,6.40
2019-05-06T17:40:14.431Z,8.27
2019-05-06T17:42:44.277Z,6.33
2019-05-06T17:45:32.319Z,8.33
2019-05-06T17:48:07.997Z,7.62
2019-05-06T17:50:36.852Z,6.70
2019-05-06T17:53:05.927Z,6.60
2019-05-06T17:55:34.907Z,6.37
2019-05-06T17:58:05.948Z,10.75
2019-05-06T18:00:37.773Z,8.33
2019-05-06T18:03:07.007Z,14.40
2019-05-06T18:05:35.862Z,6.67
2019-05-06T18:08:04.677Z,9.33
2019-05-06T18:10:33.637Z,7.07
2019-05-06T18:13:03.292Z,6.80
2019-05-06T18:15:32.696Z,8.37
2019-05-06T18:18:03.272Z,7.70
2019-05-06T18:20:33.590Z,9.13
2019-05-06T18:23:06.491Z,12.60
2019-05-06T18:25:39.925Z,15.68
2019-05-06T18:28:08.848Z,7.90
2019-05-06T18:30:39.548Z,9.83
2019-05-06T18:33:08.481Z,7.78
2019-05-06T18:35:37.420Z,10.33
2019-05-06T18:38:06.420Z,6.90
2019-05-06T18:40:35.254Z,8.63
2019-05-06T18:43:04.153Z,8.63
2019-05-06T18:45:33.500Z,9.80
2019-05-06T18:48:03.935Z,8.60
2019-05-06T18:50:33.543Z,7.25
2019-05-06T18:53:02.585Z,9.40
2019-05-06T18:55:33.059Z,14.47
2019-05-06T18:58:02.429Z,8.60
2019-05-06T19:00:32.029Z,8.93
2019-05-06T19:03:02.665Z,6.80
2019-05-06T19:05:36.067Z,8.07
2019-05-06T19:08:12.509Z,7.83
2019-05-06T19:10:45.539Z,8.05
2019-05-06T19:13:14.368Z,8.50
2019-05-06T19:15:46.061Z,7.33
2019-05-06T19:18:14.871Z,7.57
2019-05-06T19:20:45.886Z,9.77
2019-05-06T19:23:15.867Z,7.67
2019-05-06T19:25:44.782Z,10.13
2019-05-06T19:28:15.036Z,8.20
2019-05-06T19:30:44.025Z,9.90
2019-05-06T19:33:12.910Z,12.33
2019-05-06T19:35:42.848Z,9.00
2019-05-06T19:38:12.606Z,11.63
2019-05-06T19:40:42.667Z,11.23
2019-05-06T19:43:13.977Z,11.17
2019-05-06T19:45:42.858Z,10.77
2019-05-06T19:48:13.982Z,7.90
2019-05-06T19:50:43.042Z,7.53
2019-05-06T19:53:11.928Z,8.47
2019-05-06T19:55:46.614Z,10.00
2019-05-06T20:01:22.742Z,8.23
2019-05-06T20:03:52.664Z,8.33
2019-05-06T20:06:41.983Z,9.60
2019-05-06T20:09:33.381Z,7.00
2019-05-06T20:12:04.983Z,7.03
2019-05-06T20:14:35.318Z,8.97
2019-05-06T20:17:05.180Z,6.67
2019-05-06T20:19:34.710Z,6.87
2019-05-06T20:22:04.719Z,6.80
2019-05-06T20:24:34.358Z,7.00
2019-05-06T20:27:03.251Z,6.75
2019-05-06T20:29:33.045Z,7.23
2019-05-06T20:32:03.195Z,8.05
2019-05-06T20:34:32.403Z,6.70
2019-05-06T20:37:04.195Z,6.20
2019-05-06T20:39:35.678Z,8.13
2019-05-06T20:42:04.622Z,8.33
2019-05-06T20:44:33.440Z,6.90
2019-05-06T20:47:04.695Z,6.42
2019-05-06T20:49:33.528Z,8.37
2019-05-06T20:52:02.320Z,7.23
2019-05-06T20:54:32.527Z,8.67
2019-05-06T20:57:05.725Z,8.43
2019-05-06T20:59:37.075Z,7.77
2019-05-06T21:02:09.021Z,9.37
2019-05-06T21:04:42.959Z,6.67
2019-05-06T21:07:12.601Z,7.87
2019-05-06T21:09:44.845Z,9.20
2019-05-06T21:12:16.129Z,6.97
2019-05-06T21:14:44.287Z,8.50
2019-05-06T21:17:13.153Z,7.67
2019-05-06T21:19:43.609Z,8.57
2019-05-06T21:22:13.763Z,6.57
2019-05-06T21:24:44.173Z,10.48
2019-05-06T21:27:13.086Z,8.27
2019-05-06T21:29:42.157Z,7.08
2019-05-06T21:32:11.259Z,9.03
2019-05-06T21:34:40.061Z,6.60
2019-05-06T21:37:09.011Z,7.50
2019-05-06T21:39:45.935Z,6.72
2019-05-06T21:42:14.966Z,6.50
2019-05-06T21:44:43.881Z,7.17
2019-05-06T21:47:12.758Z,6.73
2019-05-06T21:49:42.440Z,9.27
2019-05-06T21:52:13.073Z,7.00
2019-05-06T21:54:45.098Z,9.23
2019-05-06T21:57:17.885Z,9.03
2019-05-06T21:59:47.965Z,10.67
2019-05-06T22:04:45.792Z,8.10
2019-05-06T22:07:14.733Z,7.58
2019-05-06T22:09:43.601Z,8.10
2019-05-06T22:12:15.247Z,6.97
2019-05-06T22:14:44.207Z,8.33
2019-05-06T22:17:14.099Z,7.15
2019-05-06T22:19:45.626Z,9.50
2019-05-06T22:22:15.433Z,9.45
2019-05-06T22:24:45.739Z,7.43
2019-05-06T22:27:22.080Z,9.30
2019-05-06T22:29:56.055Z,9.03
2019-05-06T22:32:24.902Z,9.68
2019-05-06T22:34:53.760Z,14.13
2019-05-06T22:37:23.353Z,10.10
2019-05-06T22:39:55.013Z,8.50
2019-05-06T22:42:25.566Z,8.65
2019-05-06T22:44:54.454Z,8.20
2019-05-06T22:47:23.350Z,9.90
2019-05-06T22:49:54.283Z,9.60
2019-05-06T22:52:22.718Z,8.63
2019-05-06T22:54:52.738Z,9.93
2019-05-06T22:57:25.114Z,9.23
2019-05-06T22:59:56.870Z,11.45
2019-05-06T23:02:35.068Z,7.93
2019-05-06T23:05:05.526Z,9.87
2019-05-06T23:07:34.468Z,9.47
2019-05-06T23:10:06.788Z,11.40
2019-05-06T23:12:35.676Z,11.33
2019-05-06T23:15:08.700Z,8.78
2019-05-06T23:17:37.521Z,11.87
2019-05-06T23:20:06.806Z,10.20
2019-05-06T23:22:35.642Z,11.03
2019-05-06T23:25:08.487Z,9.28
2019-05-06T23:27:38.922Z,10.17
2019-05-06T23:30:07.954Z,11.20
2019-05-06T23:32:36.764Z,8.67
2019-05-06T23:35:06.383Z,9.93
2019-05-06T23:38:12.131Z,9.27
2019-05-06T23:41:17.195Z,10.10
2019-05-06T23:44:23.051Z,12.40
2019-05-06T23:47:28.332Z,9.83
2019-05-06T23:50:34.146Z,10.00
2019-05-06T23:53:42.038Z,9.97
2019-05-06T23:56:44.449Z,11.90
2019-05-06T23:59:15.202Z,8.17
